Alachua, Florida
Current Conditions -  °F | °C
As of 7:53 PM on Friday 28 Nov 2014 (Local Time) from KGNV Reporting Station
Clear Clear  
Wind Chill: 40°   Ceiling: Unl
Heat Index: 40°   Visibility: 10mi
Dew Point: 37°   Wind: 0mph
Humidity: 89%   Direction: NA
Pressure: 30.33"   Gusts: NA
Location:  29.78°N, 82.48°W
Report Text: KGNV 290053Z 00000KT 10SM CLR 04/03 A3033 RMK AO2 SLP271 T00440028
Loading
Personal Weather Stations






























Interactive Weather Map New forecast layout! Learn more

10-Day Weather Forecast

Advertisements
Track Severe Weather on mobile